メインページ
METAR-TAF:

METAR-TAF

空港 :

モスクワ-シェレメーチエヴォ, ロシア

シェレメーチエヴォ国際空港

緯度: 55-59N, 経度: 037-30E, 海抜: 190m

現時点の気象観測

当レポートは33分前の23:00(UTC)に作成
北/北東の風 2kt
気温 5°C
湿度 100%
気圧 1036 hPa
視程10km以上
1,500メートル以下は雲なし、積乱雲なし

METAR: UUEE 232300Z 02001MPS CAVOK 05/05 Q1036 R06R/CLRD62 NOSIG

時間: 02:33 (23:33 UTC)

予報

当レポートは3時間33分前の20:00(UTC)に作成
予報は23日の 21時(UTC)から 24日の 21時(UTC)まで有効
の風 8kt
視程10km以上
1,500メートル以下は雲なし、積乱雲なし

TAF: UUEE 232000Z 2321/2421 09004MPS CAVOK TX16/2413Z TN05/2403Z

4,000以上の空港の気象観測と天気予報(METAR報とTAF報)

利用可能な観測所は地図上に黄色い丸と赤い丸で示す。

丸の上にカーソルを重ねると観測所名を参照できる。

次にクリックすると気象観測と天気予報を参照できる。

マップの切り替え:黒色「×」印の緑ボタンをクリックして拡大、「-」印の緑ボタンをクリックして縮小、緑色の三角印をクリックして隣りの地図に切り替え


METAR-TAF: